createdAt,value
2022-11-29T00:00:52.787Z,6.47
2022-11-29T00:03:58.637Z,6.40
2022-11-29T00:07:04.022Z,6.78
2022-11-29T00:10:12.626Z,6.72
2022-11-29T00:13:17.785Z,7.22
2022-11-29T00:16:23.143Z,6.97
2022-11-29T00:19:28.397Z,6.57
2022-11-29T00:22:33.628Z,7.03
2022-11-29T00:25:41.549Z,6.88
2022-11-29T00:28:47.009Z,7.32
2022-11-29T00:31:52.184Z,6.57
2022-11-29T00:34:59.629Z,7.75
2022-11-29T00:38:05.103Z,6.82
2022-11-29T00:41:13.370Z,7.45
2022-11-29T00:44:20.618Z,6.70
2022-11-29T00:47:26.302Z,6.67
2022-11-29T00:50:31.334Z,7.07
2022-11-29T00:53:36.749Z,7.00
2022-11-29T00:56:44.384Z,6.47
2022-11-29T00:59:49.917Z,6.40
2022-11-29T01:02:54.935Z,6.53
2022-11-29T01:06:03.562Z,6.95
2022-11-29T01:09:09.109Z,6.28
2022-11-29T01:12:16.820Z,6.97
2022-11-29T01:15:22.010Z,5.70
2022-11-29T01:18:27.401Z,6.28
2022-11-29T01:21:32.974Z,5.95
2022-11-29T01:24:38.145Z,6.03
2022-11-29T01:27:45.973Z,6.15
2022-11-29T01:30:51.049Z,6.65
2022-11-29T01:33:56.878Z,6.25
2022-11-29T01:37:01.943Z,6.60
2022-11-29T01:40:07.617Z,6.68
2022-11-29T01:43:19.231Z,6.43
2022-11-29T01:46:24.447Z,6.82
2022-11-29T01:49:31.281Z,7.10
2022-11-29T01:52:36.494Z,7.07
2022-11-29T01:55:43.386Z,7.85
2022-11-29T01:58:51.359Z,8.30
2022-11-29T02:01:57.268Z,8.93
2022-11-29T02:05:03.632Z,8.23
2022-11-29T02:08:09.405Z,8.20
2022-11-29T02:11:43.768Z,8.13
2022-11-29T02:14:59.021Z,8.80
2022-11-29T02:18:07.677Z,9.57
2022-11-29T02:21:39.533Z,9.13
2022-11-29T02:24:53.319Z,9.40
2022-11-29T02:28:16.103Z,10.43
2022-11-29T02:31:35.844Z,9.05
2022-11-29T02:34:55.206Z,9.45
2022-11-29T02:38:05.483Z,9.10
2022-11-29T02:41:21.515Z,9.18
2022-11-29T02:44:33.667Z,9.50
2022-11-29T02:47:46.990Z,9.30
2022-11-29T02:50:58.422Z,9.23
2022-11-29T02:54:07.526Z,9.73
2022-11-29T02:57:17.979Z,9.35
2022-11-29T03:00:24.269Z,8.80
2022-11-29T03:03:30.795Z,9.98
2022-11-29T03:06:42.334Z,9.82
2022-11-29T03:09:49.613Z,10.45
2022-11-29T03:12:55.918Z,11.23
2022-11-29T03:16:02.403Z,10.38
2022-11-29T03:19:15.394Z,11.07
2022-11-29T03:22:29.071Z,11.95
2022-11-29T03:25:36.381Z,10.68
2022-11-29T03:28:43.200Z,10.98
2022-11-29T03:31:50.893Z,10.35
2022-11-29T03:34:59.477Z,10.90
2022-11-29T03:38:12.020Z,10.20
2022-11-29T03:41:21.474Z,10.32
2022-11-29T03:44:29.449Z,10.30
2022-11-29T03:47:37.646Z,11.43
2022-11-29T03:50:45.279Z,12.23
2022-11-29T03:53:55.472Z,11.68
2022-11-29T03:57:01.076Z,10.27
2022-11-29T04:00:08.697Z,11.07
2022-11-29T04:03:34.164Z,11.13
2022-11-29T04:06:46.362Z,10.35
2022-11-29T04:10:02.384Z,11.30
2022-11-29T04:13:23.902Z,10.68
2022-11-29T04:16:52.926Z,11.63
2022-11-29T04:20:11.599Z,9.73
2022-11-29T04:23:27.576Z,10.25
2022-11-29T04:26:50.768Z,10.82
2022-11-29T04:30:06.773Z,9.35
2022-11-29T04:33:32.368Z,9.40
2022-11-29T04:36:48.474Z,9.63
2022-11-29T04:40:00.429Z,9.10
2022-11-29T04:43:24.637Z,9.07
2022-11-29T04:46:38.907Z,8.40
2022-11-29T04:49:56.849Z,9.50
2022-11-29T04:53:11.401Z,9.48
2022-11-29T04:56:20.366Z,10.50
2022-11-29T04:59:31.153Z,9.93
2022-11-29T05:02:37.836Z,10.70
2022-11-29T05:05:46.321Z,10.02
2022-11-29T05:08:54.579Z,10.98
2022-11-29T05:12:03.264Z,10.73
2022-11-29T05:15:22.407Z,10.75
2022-11-29T05:18:30.222Z,10.35
2022-11-29T05:21:40.719Z,10.05
2022-11-29T05:24:54.908Z,10.38
2022-11-29T05:28:04.509Z,9.93
2022-11-29T05:31:27.003Z,9.75
2022-11-29T05:37:52.367Z,10.27
2022-11-29T05:41:04.663Z,9.77
2022-11-29T05:44:12.517Z,9.93
2022-11-29T05:47:23.099Z,10.50
2022-11-29T05:50:32.837Z,11.50
2022-11-29T05:53:48.352Z,11.35
2022-11-29T05:56:59.719Z,11.15
2022-11-29T06:00:06.428Z,11.93
2022-11-29T06:03:22.594Z,11.15
2022-11-29T06:06:33.641Z,11.60
2022-11-29T06:09:43.034Z,12.27
2022-11-29T06:12:51.268Z,11.55
2022-11-29T06:16:03.604Z,11.60
2022-11-29T06:19:25.397Z,12.15
2022-11-29T06:22:40.902Z,13.13
2022-11-29T06:26:00.697Z,12.45
2022-11-29T06:29:24.105Z,14.18
2022-11-29T06:32:34.337Z,14.20
2022-11-29T06:35:46.056Z,15.05
2022-11-29T06:38:54.177Z,15.20
2022-11-29T06:41:59.587Z,15.80
2022-11-29T06:45:04.897Z,17.23
2022-11-29T06:48:13.038Z,16.52
2022-11-29T06:51:21.511Z,16.40
2022-11-29T06:57:40.450Z,16.42
2022-11-29T07:00:49.314Z,18.30
2022-11-29T07:04:12.574Z,16.90
2022-11-29T07:07:19.949Z,18.17
2022-11-29T07:10:25.518Z,17.57
2022-11-29T07:13:34.154Z,17.80
2022-11-29T07:19:47.285Z,15.43
2022-11-29T07:22:58.405Z,16.65
2022-11-29T07:26:08.936Z,16.30
2022-11-29T07:29:24.884Z,17.15
2022-11-29T07:32:33.709Z,17.48
2022-11-29T07:35:43.136Z,18.08
2022-11-29T07:38:57.379Z,17.58
2022-11-29T07:42:06.415Z,18.00
2022-11-29T07:45:20.332Z,18.42
2022-11-29T07:48:27.128Z,16.77
2022-11-29T07:51:32.266Z,16.60
2022-11-29T07:54:37.480Z,16.80
2022-11-29T07:57:42.586Z,16.17
2022-11-29T08:00:50.383Z,16.25
2022-11-29T08:03:55.758Z,14.75
2022-11-29T08:07:01.216Z,15.02
2022-11-29T08:10:07.066Z,14.82
2022-11-29T08:13:12.224Z,15.73
2022-11-29T08:16:21.650Z,15.80
2022-11-29T08:19:26.710Z,16.05
2022-11-29T08:22:31.957Z,15.88
2022-11-29T08:25:37.571Z,16.67
2022-11-29T08:28:42.738Z,17.42
2022-11-29T08:31:53.890Z,17.08
2022-11-29T08:34:58.931Z,17.83
2022-11-29T08:38:05.207Z,18.70
2022-11-29T08:41:11.495Z,18.88
2022-11-29T08:44:16.717Z,18.63
2022-11-29T08:47:39.233Z,19.02
2022-11-29T08:50:44.503Z,19.48
2022-11-29T08:53:51.867Z,19.60
2022-11-29T09:00:22.691Z,20.13
2022-11-29T09:03:42.837Z,18.15
2022-11-29T09:06:51.992Z,19.05
2022-11-29T09:09:57.346Z,19.27
2022-11-29T09:13:02.580Z,17.38
2022-11-29T09:16:09.688Z,18.17
2022-11-29T09:19:19.822Z,18.90
2022-11-29T09:22:25.097Z,18.17
2022-11-29T09:25:30.765Z,19.52
2022-11-29T09:28:36.344Z,19.58
2022-11-29T09:31:41.709Z,21.80
2022-11-29T09:34:49.672Z,20.42
2022-11-29T09:37:54.873Z,21.92
2022-11-29T09:41:01.035Z,20.10
2022-11-29T09:44:08.298Z,20.40
2022-11-29T09:47:21.959Z,20.02
2022-11-29T09:50:34.998Z,20.85
2022-11-29T09:53:47.215Z,20.92
2022-11-29T09:56:53.683Z,21.35
2022-11-29T10:00:01.131Z,23.08
2022-11-29T10:03:13.900Z,20.10
2022-11-29T10:06:24.318Z,24.83
2022-11-29T10:09:33.941Z,20.75
2022-11-29T10:12:41.322Z,22.08
2022-11-29T10:15:47.447Z,20.55
2022-11-29T10:18:54.937Z,20.40
2022-11-29T10:22:06.508Z,19.80
2022-11-29T10:25:13.533Z,18.65
2022-11-29T10:28:19.628Z,19.20
2022-11-29T10:31:27.294Z,19.05
2022-11-29T10:34:34.025Z,16.80
2022-11-29T10:37:45.856Z,15.07
2022-11-29T10:41:00.076Z,15.55
2022-11-29T10:44:05.280Z,14.02
2022-11-29T10:47:11.216Z,13.43
2022-11-29T10:50:17.156Z,13.18
2022-11-29T10:53:27.035Z,12.80
2022-11-29T10:56:38.068Z,13.52
2022-11-29T10:59:43.613Z,13.35
2022-11-29T11:02:48.907Z,13.23
2022-11-29T11:06:01.558Z,12.82
2022-11-29T11:09:22.017Z,13.88
2022-11-29T11:12:28.538Z,13.43
2022-11-29T11:15:34.568Z,12.20
2022-11-29T11:18:40.972Z,12.68
2022-11-29T11:21:46.046Z,12.35
2022-11-29T11:24:59.827Z,12.98
2022-11-29T11:28:15.560Z,13.15
2022-11-29T11:31:28.535Z,14.57
2022-11-29T11:34:34.658Z,14.02
2022-11-29T11:37:40.082Z,13.95
2022-11-29T11:40:51.367Z,14.20
2022-11-29T11:44:00.499Z,13.77
2022-11-29T11:47:07.727Z,15.20
2022-11-29T11:50:15.698Z,14.18
2022-11-29T11:53:25.285Z,13.73
2022-11-29T11:56:36.583Z,14.95
2022-11-29T11:59:41.860Z,13.88
2022-11-29T12:02:47.300Z,13.77
2022-11-29T12:05:53.352Z,13.90
2022-11-29T12:09:01.058Z,14.57
2022-11-29T12:12:15.787Z,15.25
2022-11-29T12:15:22.772Z,14.27
2022-11-29T12:18:31.764Z,15.20
2022-11-29T12:21:38.132Z,16.88
2022-11-29T12:24:48.099Z,16.58
2022-11-29T12:27:56.258Z,15.85
2022-11-29T12:31:05.838Z,16.17
2022-11-29T12:34:22.174Z,16.05
2022-11-29T12:37:30.159Z,15.77
2022-11-29T12:40:39.583Z,14.87
2022-11-29T12:43:54.123Z,15.45
2022-11-29T12:50:33.037Z,14.93
2022-11-29T12:53:47.070Z,12.98
2022-11-29T12:56:55.381Z,13.15
2022-11-29T13:00:08.872Z,13.95
2022-11-29T13:03:18.115Z,14.55
2022-11-29T13:06:26.710Z,14.40
2022-11-29T13:12:37.697Z,15.93
2022-11-29T13:15:49.707Z,17.92
2022-11-29T13:18:58.813Z,16.73
2022-11-29T13:22:09.081Z,17.50
2022-11-29T13:25:18.373Z,19.33
2022-11-29T13:28:25.633Z,17.48
2022-11-29T13:31:33.960Z,18.90
2022-11-29T13:37:54.795Z,20.38
2022-11-29T13:41:02.784Z,22.02
2022-11-29T13:44:12.352Z,22.27
2022-11-29T13:47:21.306Z,21.60
2022-11-29T13:50:39.615Z,20.83
2022-11-29T13:57:03.793Z,19.55
2022-11-29T14:00:09.858Z,18.73
2022-11-29T14:03:35.477Z,20.45
2022-11-29T14:06:43.670Z,19.15
2022-11-29T14:12:56.258Z,19.92
2022-11-29T14:16:03.331Z,21.05
2022-11-29T14:19:23.656Z,19.20
2022-11-29T14:22:32.117Z,18.10
2022-11-29T14:25:53.353Z,18.80
2022-11-29T14:28:58.741Z,15.80
2022-11-29T14:32:03.906Z,16.33
2022-11-29T14:35:16.246Z,15.38
2022-11-29T14:38:30.808Z,14.95
2022-11-29T14:41:46.211Z,15.95
2022-11-29T14:44:54.055Z,14.88
2022-11-29T14:47:59.574Z,14.48
2022-11-29T14:51:11.881Z,13.52
2022-11-29T14:54:22.368Z,14.25
2022-11-29T14:57:42.500Z,14.05
2022-11-29T15:01:10.392Z,14.52
2022-11-29T15:04:16.161Z,14.40
2022-11-29T15:07:22.967Z,13.70
2022-11-29T15:10:33.491Z,14.27
2022-11-29T15:13:40.265Z,14.25
2022-11-29T15:16:53.527Z,15.38
2022-11-29T15:20:10.405Z,14.65
2022-11-29T15:23:18.626Z,14.43
2022-11-29T15:26:26.689Z,15.32
2022-11-29T15:32:37.440Z,13.98
2022-11-29T15:35:50.509Z,16.27
2022-11-29T15:38:57.533Z,14.18
2022-11-29T15:42:06.357Z,13.80
2022-11-29T15:45:26.748Z,12.77
2022-11-29T15:48:32.316Z,13.25
2022-11-29T15:51:39.583Z,13.43
2022-11-29T15:54:45.960Z,9.25
2022-11-29T15:57:55.501Z,12.05
2022-11-29T16:01:01.700Z,12.60
2022-11-29T16:04:07.145Z,13.15
2022-11-29T16:07:12.576Z,12.18
2022-11-29T16:10:19.746Z,12.73
2022-11-29T16:13:41.793Z,12.70
2022-11-29T16:16:47.909Z,11.48
2022-11-29T16:19:53.415Z,13.60
2022-11-29T16:23:12.191Z,12.95
2022-11-29T16:26:19.871Z,12.95
2022-11-29T16:29:30.070Z,11.90
2022-11-29T16:32:37.045Z,11.90
2022-11-29T16:35:42.071Z,12.43
2022-11-29T16:38:48.583Z,13.32
2022-11-29T16:42:04.903Z,13.75
2022-11-29T16:45:33.923Z,13.48
2022-11-29T16:48:40.683Z,12.88
2022-11-29T16:51:48.812Z,13.50
2022-11-29T16:54:54.053Z,13.55
2022-11-29T16:57:59.158Z,12.40
2022-11-29T17:01:18.249Z,13.48
2022-11-29T17:04:25.281Z,14.38
2022-11-29T17:07:32.614Z,13.05
2022-11-29T17:10:37.686Z,14.60
2022-11-29T17:13:43.239Z,25.48
2022-11-29T17:16:52.518Z,15.68
2022-11-29T17:19:57.595Z,13.52
2022-11-29T17:23:02.817Z,14.85
2022-11-29T17:26:07.988Z,13.68
2022-11-29T17:29:13.680Z,13.25
2022-11-29T17:32:26.515Z,15.25
2022-11-29T17:35:32.205Z,13.35
2022-11-29T17:38:37.435Z,14.35
2022-11-29T17:41:42.491Z,15.27
2022-11-29T17:44:47.728Z,17.00
2022-11-29T17:47:55.577Z,20.38
2022-11-29T17:51:02.285Z,13.88
2022-11-29T17:54:07.557Z,14.88
2022-11-29T17:57:13.024Z,13.88
2022-11-29T18:00:18.885Z,13.73
2022-11-29T18:03:26.937Z,14.27
2022-11-29T18:06:32.749Z,15.23
2022-11-29T18:09:37.827Z,14.88
2022-11-29T18:12:42.893Z,14.43
2022-11-29T18:15:48.137Z,14.95
2022-11-29T18:18:59.799Z,15.05
2022-11-29T18:22:05.278Z,14.35
2022-11-29T18:25:37.549Z,14.25
2022-11-29T18:28:37.489Z,14.88
2022-11-29T18:31:43.394Z,14.32
2022-11-29T18:34:51.257Z,13.55
2022-11-29T18:38:14.696Z,13.63
2022-11-29T18:41:22.575Z,13.82
2022-11-29T18:44:29.703Z,13.25
2022-11-29T18:47:36.061Z,13.68
2022-11-29T18:50:43.874Z,14.52
2022-11-29T18:53:49.544Z,12.85
2022-11-29T18:56:54.909Z,14.05
2022-11-29T19:00:00.098Z,13.05
2022-11-29T19:03:05.430Z,14.15
2022-11-29T19:06:14.413Z,13.18
2022-11-29T19:09:21.480Z,13.20
2022-11-29T19:12:26.920Z,12.55
2022-11-29T19:15:32.270Z,12.98
2022-11-29T19:18:37.769Z,13.27
2022-11-29T19:21:45.739Z,12.70
2022-11-29T19:24:51.036Z,12.77
2022-11-29T19:27:58.349Z,12.68
2022-11-29T19:31:04.911Z,13.02
2022-11-29T19:34:11.724Z,12.00
2022-11-29T19:37:19.502Z,11.73
2022-11-29T19:40:25.068Z,11.88
2022-11-29T19:43:30.511Z,11.52
2022-11-29T19:46:36.376Z,11.50
2022-11-29T19:49:46.149Z,11.23
2022-11-29T19:52:54.605Z,12.32
2022-11-29T19:55:59.704Z,10.85
2022-11-29T19:59:04.918Z,13.48
2022-11-29T20:02:10.282Z,12.07
2022-11-29T20:05:15.637Z,11.75
2022-11-29T20:08:23.453Z,12.13
2022-11-29T20:11:29.006Z,11.57
2022-11-29T20:14:34.400Z,11.10
2022-11-29T20:17:39.702Z,10.88
2022-11-29T20:20:44.883Z,12.77
2022-11-29T20:23:52.928Z,11.70
2022-11-29T20:26:58.351Z,11.85
2022-11-29T20:30:03.643Z,11.13
2022-11-29T20:33:09.576Z,10.63
2022-11-29T20:36:20.766Z,10.95
2022-11-29T20:39:32.898Z,10.77
2022-11-29T20:42:46.893Z,12.48
2022-11-29T20:45:52.581Z,10.93
2022-11-29T20:49:03.149Z,11.18
2022-11-29T20:52:14.635Z,10.57
2022-11-29T20:55:22.532Z,11.40
2022-11-29T20:58:27.917Z,10.82
2022-11-29T21:01:32.942Z,11.60
2022-11-29T21:04:38.209Z,12.23
2022-11-29T21:07:43.341Z,12.10
2022-11-29T21:10:51.430Z,11.45
2022-11-29T21:17:01.844Z,11.10
2022-11-29T21:20:08.307Z,11.52
2022-11-29T21:23:17.491Z,11.95
2022-11-29T21:26:27.672Z,11.23
2022-11-29T21:29:33.332Z,11.65
2022-11-29T21:32:38.978Z,11.70
2022-11-29T21:35:44.348Z,11.82
2022-11-29T21:38:54.906Z,11.13
2022-11-29T21:42:03.329Z,12.23
2022-11-29T21:45:14.883Z,12.70
2022-11-29T21:48:33.249Z,12.57
2022-11-29T21:51:38.260Z,12.20
2022-11-29T21:54:43.752Z,11.90
2022-11-29T21:57:51.583Z,11.27
2022-11-29T22:00:57.006Z,12.02
2022-11-29T22:04:02.475Z,14.30
2022-11-29T22:07:07.804Z,12.23
2022-11-29T22:10:14.651Z,12.00
2022-11-29T22:13:22.357Z,12.93
2022-11-29T22:16:27.935Z,16.48
2022-11-29T22:19:35.378Z,13.45
2022-11-29T22:22:40.389Z,11.93
2022-11-29T22:25:45.485Z,11.68
2022-11-29T22:28:53.254Z,12.70
2022-11-29T22:31:59.631Z,14.25
2022-11-29T22:35:04.892Z,13.02
2022-11-29T22:38:10.029Z,11.80
2022-11-29T22:41:16.542Z,13.82
2022-11-29T22:44:24.770Z,13.88
2022-11-29T22:50:35.225Z,12.70
2022-11-29T22:53:40.697Z,12.45
2022-11-29T22:56:46.665Z,12.27
2022-11-29T22:59:54.446Z,12.55
2022-11-29T23:02:59.687Z,12.88
2022-11-29T23:06:08.870Z,13.15
2022-11-29T23:09:16.564Z,13.20
2022-11-29T23:12:22.141Z,16.25
2022-11-29T23:15:30.001Z,15.00
2022-11-29T23:18:35.277Z,15.52
2022-11-29T23:21:42.274Z,15.63
2022-11-29T23:24:47.366Z,16.23
2022-11-29T23:27:54.274Z,14.80
2022-11-29T23:31:01.981Z,15.18
2022-11-29T23:34:07.587Z,15.82
2022-11-29T23:37:12.816Z,15.55
2022-11-29T23:40:18.328Z,15.98
2022-11-29T23:43:23.642Z,16.60
2022-11-29T23:46:31.513Z,16.40
2022-11-29T23:49:40.000Z,17.63
2022-11-29T23:52:45.242Z,18.17
2022-11-29T23:55:58.236Z,18.15
2022-11-29T23:59:03.525Z,17.05
